createdAt,value
2022-08-07T00:00:25.967Z,18.50
2022-08-07T00:02:55.911Z,18.40
2022-08-07T00:05:24.189Z,18.40
2022-08-07T00:10:30.376Z,18.30
2022-08-07T00:13:17.409Z,18.30
2022-08-07T00:15:53.951Z,18.30
2022-08-07T00:18:25.134Z,18.20
2022-08-07T00:20:57.471Z,18.20
2022-08-07T00:28:45.792Z,18.20
2022-08-07T00:36:43.374Z,18.10
2022-08-07T00:39:12.850Z,18.10
2022-08-07T00:41:53.723Z,18.10
2022-08-07T00:44:30.778Z,18.10
2022-08-07T00:52:20.114Z,18.00
2022-08-07T00:54:53.651Z,18.00
2022-08-07T00:59:54.773Z,18.00
2022-08-07T01:02:29.108Z,17.90
2022-08-07T01:04:58.567Z,17.90
2022-08-07T01:10:06.602Z,17.80
2022-08-07T01:12:53.274Z,17.80
2022-08-07T01:15:35.967Z,17.80
2022-08-07T01:18:17.176Z,17.80
2022-08-07T01:20:59.563Z,17.80
2022-08-07T01:23:35.441Z,17.80
2022-08-07T01:26:12.190Z,17.80
2022-08-07T01:28:41.710Z,17.70
2022-08-07T01:33:54.995Z,17.70
2022-08-07T01:36:34.101Z,17.70
2022-08-07T01:41:39.121Z,17.60
2022-08-07T01:44:23.139Z,17.60
2022-08-07T01:46:52.387Z,17.60
2022-08-07T01:49:22.300Z,17.60
2022-08-07T01:52:01.961Z,17.50
2022-08-07T01:54:42.696Z,17.50
2022-08-07T01:57:24.559Z,17.50
2022-08-07T01:59:56.801Z,17.40
2022-08-07T02:03:05.662Z,17.30
2022-08-07T02:05:48.337Z,17.30
2022-08-07T02:08:17.083Z,17.20
2022-08-07T02:10:55.047Z,17.30
2022-08-07T02:13:47.033Z,17.20
2022-08-07T02:16:16.030Z,17.20
2022-08-07T02:18:47.383Z,17.50
2022-08-07T02:21:17.287Z,17.20
2022-08-07T02:23:47.040Z,17.10
2022-08-07T02:26:33.106Z,17.10
2022-08-07T02:29:03.954Z,17.10
2022-08-07T02:31:33.324Z,17.10
2022-08-07T02:34:11.152Z,17.10
2022-08-07T02:36:41.242Z,17.00
2022-08-07T02:39:17.039Z,17.00
2022-08-07T02:42:00.116Z,16.90
2022-08-07T02:44:34.611Z,16.90
2022-08-07T02:47:06.208Z,16.90
2022-08-07T02:49:56.278Z,16.80
2022-08-07T02:52:31.049Z,16.80
2022-08-07T02:55:04.015Z,16.80
2022-08-07T02:57:36.252Z,16.70
2022-08-07T03:00:11.073Z,16.70
2022-08-07T03:02:54.365Z,16.60
2022-08-07T03:05:24.609Z,16.60
2022-08-07T03:08:08.188Z,16.60
2022-08-07T03:10:41.099Z,16.60
2022-08-07T03:13:19.494Z,16.50
2022-08-07T03:15:56.226Z,16.50
2022-08-07T03:18:34.698Z,16.50
2022-08-07T03:21:08.630Z,16.40
2022-08-07T03:24:18.302Z,16.40
2022-08-07T03:26:32.430Z,16.40
2022-08-07T03:29:03.993Z,16.40
2022-08-07T03:31:43.170Z,16.40
2022-08-07T03:34:18.185Z,16.30
2022-08-07T03:36:47.384Z,16.30
2022-08-07T03:39:46.155Z,16.30
2022-08-07T03:42:07.253Z,16.30
2022-08-07T03:44:39.802Z,16.30
2022-08-07T03:49:51.940Z,16.30
2022-08-07T03:52:26.563Z,16.30
2022-08-07T03:54:57.271Z,16.20
2022-08-07T03:58:33.427Z,16.20
2022-08-07T04:00:29.336Z,16.20
2022-08-07T04:02:59.159Z,16.10
2022-08-07T04:05:39.679Z,16.10
2022-08-07T04:08:11.024Z,16.10
2022-08-07T04:10:39.471Z,16.00
2022-08-07T04:13:15.168Z,16.00
2022-08-07T04:15:45.755Z,16.00
2022-08-07T04:18:56.560Z,16.00
2022-08-07T04:21:07.221Z,16.00
2022-08-07T04:23:43.947Z,16.00
2022-08-07T04:26:28.538Z,16.00
2022-08-07T04:28:56.641Z,16.00
2022-08-07T04:31:38.796Z,16.00
2022-08-07T04:34:17.280Z,16.00
2022-08-07T04:36:52.782Z,15.90
2022-08-07T04:39:25.851Z,16.00
2022-08-07T04:41:54.623Z,15.90
2022-08-07T04:44:22.628Z,15.90
2022-08-07T04:47:04.761Z,15.90
2022-08-07T04:49:57.416Z,15.90
2022-08-07T04:52:51.054Z,15.90
2022-08-07T04:58:10.698Z,15.90
2022-08-07T04:58:47.296Z,15.90
2022-08-07T05:01:18.249Z,15.90
2022-08-07T05:04:08.015Z,15.90
2022-08-07T05:06:51.770Z,16.00
2022-08-07T05:09:46.205Z,15.90
2022-08-07T05:12:27.069Z,16.00
2022-08-07T05:15:15.934Z,16.00
2022-08-07T05:17:56.595Z,16.00
2022-08-07T05:20:35.313Z,16.00
2022-08-07T05:23:15.835Z,16.10
2022-08-07T05:26:11.579Z,16.10
2022-08-07T05:28:35.900Z,16.20
2022-08-07T05:31:04.640Z,16.20
2022-08-07T05:36:12.031Z,16.30
2022-08-07T05:38:59.955Z,16.30
2022-08-07T05:42:00.348Z,16.30
2022-08-07T05:47:00.313Z,16.40
2022-08-07T05:49:40.746Z,16.40
2022-08-07T05:52:11.578Z,16.50
2022-08-07T05:54:53.270Z,16.50
2022-08-07T05:57:26.662Z,16.50
2022-08-07T06:00:00.222Z,16.60
2022-08-07T06:02:32.852Z,16.60
2022-08-07T06:05:04.717Z,16.60
2022-08-07T06:08:14.034Z,16.70
2022-08-07T06:10:25.082Z,16.70
2022-08-07T06:12:53.186Z,16.70
2022-08-07T06:15:42.028Z,16.80
2022-08-07T06:18:12.323Z,16.90
2022-08-07T06:20:50.859Z,16.90
2022-08-07T06:24:37.148Z,17.00
2022-08-07T06:26:21.650Z,17.10
2022-08-07T06:28:57.977Z,17.20
2022-08-07T06:31:38.493Z,17.20
2022-08-07T06:34:19.859Z,17.30
2022-08-07T06:36:51.922Z,17.30
2022-08-07T06:40:17.215Z,17.50
2022-08-07T06:42:15.732Z,17.60
2022-08-07T06:44:45.590Z,17.60
2022-08-07T06:47:20.939Z,17.70
2022-08-07T06:49:52.261Z,17.80
2022-08-07T06:52:35.614Z,17.90
2022-08-07T06:55:33.157Z,17.90
2022-08-07T06:58:00.874Z,18.10
2022-08-07T07:00:31.997Z,18.10
2022-08-07T07:06:02.625Z,18.30
2022-08-07T07:08:33.346Z,18.30
2022-08-07T07:11:13.917Z,18.40
2022-08-07T07:13:57.477Z,18.40
2022-08-07T07:16:45.365Z,18.50
2022-08-07T07:19:55.631Z,18.60
2022-08-07T07:22:35.765Z,18.70
2022-08-07T07:25:02.848Z,18.70
2022-08-07T07:27:56.115Z,18.80
2022-08-07T07:30:39.879Z,18.90
2022-08-07T07:33:11.453Z,19.00
2022-08-07T07:35:43.755Z,19.10
2022-08-07T07:38:25.846Z,19.10
2022-08-07T07:41:02.127Z,19.20
2022-08-07T07:43:48.117Z,19.30
2022-08-07T07:46:38.220Z,19.40
2022-08-07T07:50:33.643Z,19.40
2022-08-07T07:52:05.765Z,19.60
2022-08-07T07:54:35.921Z,19.60
2022-08-07T07:57:05.914Z,19.60
2022-08-07T07:59:52.733Z,19.70
2022-08-07T08:02:34.010Z,19.80
2022-08-07T08:05:14.300Z,19.80
2022-08-07T08:07:51.548Z,19.90
2022-08-07T08:10:38.117Z,20.00
2022-08-07T08:13:10.645Z,20.10
2022-08-07T08:15:58.990Z,20.10
2022-08-07T08:18:29.840Z,20.20
2022-08-07T08:21:02.307Z,20.20
2022-08-07T08:23:49.900Z,20.20
2022-08-07T08:26:38.358Z,20.20
2022-08-07T08:29:08.312Z,20.30
2022-08-07T08:31:59.206Z,20.30
2022-08-07T08:34:31.274Z,20.40
2022-08-07T08:37:01.036Z,20.50
2022-08-07T08:39:39.840Z,20.50
2022-08-07T08:42:26.758Z,22.60
2022-08-07T08:45:04.168Z,20.70
2022-08-07T08:47:52.304Z,20.80
2022-08-07T08:50:35.353Z,20.80
2022-08-07T08:53:16.500Z,21.00
2022-08-07T08:55:54.304Z,21.00
2022-08-07T08:58:34.431Z,21.20
2022-08-07T09:01:15.249Z,21.20
2022-08-07T09:03:55.526Z,21.30
2022-08-07T09:06:36.619Z,21.40
2022-08-07T09:09:20.732Z,21.50
2022-08-07T09:12:19.844Z,21.60
2022-08-07T09:17:59.474Z,21.70
2022-08-07T09:20:35.566Z,21.80
2022-08-07T09:24:28.778Z,22.00
2022-08-07T09:26:17.673Z,22.00
2022-08-07T09:30:05.650Z,22.20
2022-08-07T09:34:26.260Z,22.40
2022-08-07T09:37:02.948Z,22.40
2022-08-07T09:39:55.124Z,22.60
2022-08-07T09:42:38.839Z,22.60
2022-08-07T09:47:23.433Z,22.70
2022-08-07T09:48:19.075Z,22.70
2022-08-07T09:51:14.594Z,22.80
2022-08-07T09:54:02.570Z,22.90
2022-08-07T09:57:12.876Z,22.90
2022-08-07T10:00:04.413Z,23.00
2022-08-07T10:02:57.888Z,23.20
2022-08-07T10:06:20.230Z,23.30
2022-08-07T10:09:15.234Z,23.40
2022-08-07T10:12:02.013Z,23.60
2022-08-07T10:15:05.118Z,23.60
2022-08-07T10:18:01.875Z,23.80
2022-08-07T10:20:44.423Z,23.80
2022-08-07T10:24:06.965Z,23.80
2022-08-07T10:26:53.551Z,23.70
2022-08-07T10:29:45.611Z,23.70
2022-08-07T10:32:52.921Z,23.70
2022-08-07T10:35:56.446Z,23.70
2022-08-07T10:38:48.636Z,23.90
2022-08-07T10:41:47.437Z,23.90
2022-08-07T10:44:28.267Z,24.00
2022-08-07T10:47:14.014Z,24.20
2022-08-07T10:49:50.986Z,24.40
2022-08-07T10:52:31.825Z,24.40
2022-08-07T10:55:32.537Z,24.40
2022-08-07T10:58:13.799Z,24.40
2022-08-07T11:00:56.705Z,24.50
2022-08-07T11:03:37.259Z,24.60
2022-08-07T11:06:21.983Z,24.60
2022-08-07T11:08:59.764Z,24.70
2022-08-07T11:11:35.958Z,24.70
2022-08-07T11:14:46.299Z,24.90
2022-08-07T11:17:07.137Z,24.90
2022-08-07T11:19:44.273Z,25.00
2022-08-07T11:22:32.339Z,25.10
2022-08-07T11:25:12.336Z,25.10
2022-08-07T11:28:02.434Z,25.20
2022-08-07T11:30:42.138Z,25.30
2022-08-07T11:33:19.796Z,25.30
2022-08-07T11:36:16.421Z,25.30
2022-08-07T11:39:07.304Z,25.30
2022-08-07T11:42:01.863Z,25.30
2022-08-07T11:44:52.493Z,25.30
2022-08-07T11:47:56.225Z,25.30
2022-08-07T11:50:57.680Z,25.30
2022-08-07T11:53:37.922Z,25.30
2022-08-07T11:56:29.039Z,25.30
2022-08-07T12:00:08.297Z,25.40
2022-08-07T12:02:17.629Z,26.10
2022-08-07T12:05:03.065Z,25.50
2022-08-07T12:07:45.524Z,25.70
2022-08-07T12:10:28.669Z,25.70
2022-08-07T12:13:11.661Z,25.80
2022-08-07T12:16:06.179Z,25.80
2022-08-07T12:18:45.112Z,25.70
2022-08-07T12:22:35.876Z,25.70
2022-08-07T12:24:38.522Z,25.80
2022-08-07T12:27:16.357Z,25.90
2022-08-07T12:29:55.020Z,25.90
2022-08-07T12:32:30.837Z,26.00
2022-08-07T12:35:01.108Z,26.10
2022-08-07T12:38:09.643Z,26.10
2022-08-07T12:40:46.490Z,26.10
2022-08-07T12:44:03.151Z,26.00
2022-08-07T12:46:10.896Z,26.20
2022-08-07T12:48:56.051Z,26.10
2022-08-07T12:51:46.446Z,26.30
2022-08-07T12:54:37.340Z,26.30
2022-08-07T12:57:09.903Z,26.40
2022-08-07T12:59:54.278Z,26.40
2022-08-07T13:02:49.465Z,26.50
2022-08-07T13:06:03.819Z,26.50
2022-08-07T13:08:35.040Z,26.50
2022-08-07T13:11:16.640Z,26.60
2022-08-07T13:13:58.937Z,26.60
2022-08-07T13:16:37.125Z,26.70
2022-08-07T13:19:22.068Z,26.80
2022-08-07T13:22:19.573Z,26.80
2022-08-07T13:25:00.163Z,26.80
2022-08-07T13:28:11.076Z,26.70
2022-08-07T13:30:41.326Z,26.70
2022-08-07T13:34:34.616Z,26.80
2022-08-07T13:36:17.806Z,26.80
2022-08-07T13:38:50.722Z,26.70
2022-08-07T13:41:30.161Z,26.70
2022-08-07T13:44:10.387Z,26.60
2022-08-07T13:46:49.463Z,26.60
2022-08-07T13:50:35.670Z,26.60
2022-08-07T13:52:33.573Z,26.70
2022-08-07T13:54:58.404Z,26.70
2022-08-07T13:57:32.115Z,26.80
2022-08-07T14:00:08.527Z,26.80
2022-08-07T14:02:59.361Z,26.90
2022-08-07T14:05:37.128Z,26.90
2022-08-07T14:08:09.029Z,26.90
2022-08-07T14:10:42.039Z,26.90
2022-08-07T14:13:18.023Z,27.00
2022-08-07T14:15:54.111Z,26.90
2022-08-07T14:18:32.008Z,27.00
2022-08-07T14:22:41.097Z,27.00
2022-08-07T14:24:02.206Z,27.10
2022-08-07T14:26:37.189Z,27.20
2022-08-07T14:30:09.588Z,27.20
2022-08-07T14:32:02.720Z,27.30
2022-08-07T14:34:34.303Z,27.30
2022-08-07T14:37:16.463Z,27.30
2022-08-07T14:40:17.895Z,27.30
2022-08-07T14:43:01.443Z,27.40
2022-08-07T14:45:47.144Z,27.40
2022-08-07T14:48:20.192Z,27.40
2022-08-07T14:50:53.237Z,27.50
2022-08-07T14:54:08.779Z,27.70
2022-08-07T14:56:14.029Z,27.70
2022-08-07T14:58:45.015Z,27.70
2022-08-07T15:01:21.970Z,27.90
2022-08-07T15:04:06.343Z,27.90
2022-08-07T15:06:47.550Z,28.00
2022-08-07T15:09:47.120Z,28.00
2022-08-07T15:12:10.830Z,25.80
2022-08-07T15:14:58.325Z,28.10
2022-08-07T15:17:32.678Z,28.10
2022-08-07T15:20:32.822Z,28.20
2022-08-07T15:25:57.676Z,28.30
2022-08-07T15:28:38.639Z,28.40
2022-08-07T15:32:00.703Z,28.30
2022-08-07T15:34:04.840Z,28.30
2022-08-07T15:37:03.296Z,28.40
2022-08-07T15:42:48.321Z,28.70
2022-08-07T15:51:16.915Z,29.10
2022-08-07T15:53:53.090Z,29.20
2022-08-07T15:59:43.943Z,29.30
2022-08-07T16:02:23.828Z,29.40
2022-08-07T16:04:58.763Z,29.40
2022-08-07T16:08:32.551Z,29.40
2022-08-07T16:13:59.051Z,29.50
2022-08-07T16:16:47.523Z,29.60
2022-08-07T16:22:55.634Z,29.60
2022-08-07T16:25:54.071Z,29.60
2022-08-07T16:30:08.331Z,29.80
2022-08-07T16:31:58.499Z,29.90
2022-08-07T16:34:48.176Z,29.90
2022-08-07T16:38:05.997Z,30.00
2022-08-07T16:41:02.269Z,30.20
2022-08-07T16:44:06.490Z,30.20
2022-08-07T16:47:04.638Z,30.20
2022-08-07T16:50:27.053Z,30.20
2022-08-07T16:54:01.088Z,30.10
2022-08-07T16:56:38.984Z,30.00
2022-08-07T16:59:17.439Z,30.00
2022-08-07T17:02:03.224Z,30.10
2022-08-07T17:04:57.914Z,30.10
2022-08-07T17:07:55.311Z,30.30
2022-08-07T17:10:38.372Z,30.70
2022-08-07T17:13:41.898Z,31.00
2022-08-07T17:16:28.544Z,31.10
2022-08-07T17:20:00.791Z,31.60
2022-08-07T17:22:29.949Z,31.80
2022-08-07T17:25:47.695Z,31.40
2022-08-07T17:28:33.719Z,31.40
2022-08-07T17:31:16.399Z,31.70
2022-08-07T17:36:57.986Z,32.00
2022-08-07T17:39:58.589Z,32.60
2022-08-07T17:42:58.131Z,33.00
2022-08-07T17:45:35.028Z,33.30
2022-08-07T17:48:10.417Z,33.30
2022-08-07T17:51:00.031Z,33.70
2022-08-07T17:53:59.966Z,34.30
2022-08-07T17:56:31.960Z,34.80
2022-08-07T17:59:09.905Z,35.00
2022-08-07T18:01:48.529Z,35.70
2022-08-07T18:04:30.753Z,36.00
2022-08-07T18:07:20.536Z,36.00
2022-08-07T18:10:06.648Z,36.10
2022-08-07T18:12:49.605Z,36.40
2022-08-07T18:15:23.796Z,36.30
2022-08-07T18:19:02.627Z,36.40
2022-08-07T18:21:41.443Z,36.40
2022-08-07T18:24:01.588Z,36.30
2022-08-07T18:26:53.006Z,35.90
2022-08-07T18:30:06.479Z,35.80
2022-08-07T18:32:36.723Z,35.40
2022-08-07T18:35:21.506Z,35.30
2022-08-07T18:38:55.691Z,34.40
2022-08-07T18:41:17.239Z,34.10
2022-08-07T18:44:01.154Z,33.10
2022-08-07T18:46:43.118Z,33.10
2022-08-07T18:50:30.475Z,31.70
2022-08-07T18:52:51.975Z,30.50
2022-08-07T18:55:43.235Z,30.30
2022-08-07T18:58:26.767Z,29.20
2022-08-07T19:02:19.189Z,28.90
2022-08-07T19:04:09.849Z,27.90
2022-08-07T19:06:51.334Z,27.90
2022-08-07T19:09:55.984Z,27.30
2022-08-07T19:12:27.126Z,26.90
2022-08-07T19:16:02.173Z,26.80
2022-08-07T19:18:14.243Z,26.50
2022-08-07T19:21:08.932Z,26.40
2022-08-07T19:26:47.929Z,25.90
2022-08-07T19:31:05.749Z,25.70
2022-08-07T19:32:29.184Z,25.60
2022-08-07T19:35:13.081Z,25.60
2022-08-07T19:37:56.490Z,25.50
2022-08-07T19:40:31.623Z,25.40
2022-08-07T19:46:07.074Z,25.10
2022-08-07T19:48:30.383Z,25.00
2022-08-07T19:51:19.598Z,24.90
2022-08-07T19:54:35.666Z,24.70
2022-08-07T19:57:52.140Z,24.70
2022-08-07T19:59:40.775Z,24.60
2022-08-07T20:02:19.194Z,24.40
2022-08-07T20:04:51.840Z,24.40
2022-08-07T20:07:46.142Z,24.40
2022-08-07T20:10:35.307Z,24.30
2022-08-07T20:13:07.190Z,24.30
2022-08-07T20:15:51.237Z,24.30
2022-08-07T20:21:03.230Z,24.20
2022-08-07T20:23:43.341Z,24.10
2022-08-07T20:26:29.656Z,24.10
2022-08-07T20:29:10.104Z,24.00
2022-08-07T20:31:44.178Z,24.00
2022-08-07T20:34:34.423Z,23.90
2022-08-07T20:37:09.042Z,23.60
2022-08-07T20:40:03.884Z,23.80
2022-08-07T20:42:30.535Z,23.70
2022-08-07T20:45:01.239Z,23.70
2022-08-07T20:47:55.395Z,23.60
2022-08-07T20:50:21.848Z,23.60
2022-08-07T20:52:51.702Z,23.60
2022-08-07T20:55:24.906Z,23.50
2022-08-07T20:58:02.605Z,23.50
2022-08-07T21:00:37.007Z,23.50
2022-08-07T21:03:12.664Z,23.40
2022-08-07T21:05:54.669Z,23.40
2022-08-07T21:08:38.332Z,23.40
2022-08-07T21:11:14.466Z,23.40
2022-08-07T21:14:16.679Z,23.30
2022-08-07T21:16:56.068Z,23.30
2022-08-07T21:19:32.310Z,23.30
2022-08-07T21:22:19.340Z,23.20
2022-08-07T21:24:59.666Z,23.20
2022-08-07T21:27:47.199Z,23.20
2022-08-07T21:30:18.454Z,23.10
2022-08-07T21:32:56.280Z,23.10
2022-08-07T21:36:04.096Z,23.10
2022-08-07T21:38:27.721Z,23.10
2022-08-07T21:41:04.882Z,23.00
2022-08-07T21:43:56.380Z,23.00
2022-08-07T21:46:31.659Z,23.00
2022-08-07T21:49:14.651Z,23.00
2022-08-07T21:51:55.768Z,22.90
2022-08-07T21:54:32.484Z,22.90
2022-08-07T21:57:39.461Z,22.80
2022-08-07T22:00:22.996Z,22.70
2022-08-07T22:02:58.199Z,22.70
2022-08-07T22:05:44.278Z,22.60
2022-08-07T22:08:18.970Z,22.60
2022-08-07T22:10:51.707Z,22.50
2022-08-07T22:13:24.733Z,22.40
2022-08-07T22:16:42.362Z,22.30
2022-08-07T22:19:07.962Z,22.30
2022-08-07T22:22:04.312Z,22.30
2022-08-07T22:24:35.985Z,22.20
2022-08-07T22:27:10.513Z,22.20
2022-08-07T22:29:48.447Z,22.10
2022-08-07T22:32:25.542Z,22.00
2022-08-07T22:34:55.688Z,22.10
2022-08-07T22:38:02.954Z,22.00
2022-08-07T22:40:29.345Z,22.00
2022-08-07T22:43:04.142Z,21.90
2022-08-07T22:46:43.056Z,21.90
2022-08-07T22:48:55.478Z,21.90
2022-08-07T22:51:54.094Z,21.80
2022-08-07T22:54:49.713Z,21.80
2022-08-07T22:57:41.331Z,21.80
2022-08-07T23:00:16.752Z,21.80
2022-08-07T23:03:23.799Z,21.70
2022-08-07T23:06:24.125Z,21.70
2022-08-07T23:10:04.377Z,21.60
2022-08-07T23:12:21.082Z,21.60
2022-08-07T23:15:11.863Z,21.50
2022-08-07T23:18:12.728Z,21.50
2022-08-07T23:20:54.835Z,21.50
2022-08-07T23:24:06.086Z,21.40
2022-08-07T23:26:38.133Z,21.40
2022-08-07T23:29:43.954Z,21.30
2022-08-07T23:34:23.251Z,21.20
2022-08-07T23:35:20.202Z,21.20
2022-08-07T23:38:03.974Z,21.10
2022-08-07T23:40:36.288Z,21.10
2022-08-07T23:43:52.740Z,21.10
2022-08-07T23:46:59.437Z,21.00
2022-08-07T23:49:50.392Z,21.00
2022-08-07T23:53:00.536Z,21.00
2022-08-07T23:55:53.197Z,21.00
2022-08-07T23:58:21.621Z,20.90
